Time;durP1;ratioP1;P1;durP2;ratioP2;P2;SDS_P1;SDS_P2;PMS_P1;PMS_P2;Temp;Humidity;BMP_temperature;BMP_pressure;BME280_temperature;BME280_humidity;BME280_pressure;Samples;Min_cycle;Max_cycle;Signal;HPM_P1;HPM_P2
2022/09/20 00:01:19;;;;;;;15.10;9.05;;;9.90;99.90;;;;;;5079366;28;20481;-68
2022/09/20 00:03:47;;;;;;;13.90;8.07;;;9.80;99.90;;;;;;5074332;28;20033;-68
2022/09/20 00:06:18;;;;;;;17.35;9.23;;;9.80;99.90;;;;;;5073157;28;20548;-68
2022/09/20 00:08:45;;;;;;;19.27;9.10;;;9.90;99.90;;;;;;5076668;28;20028;-67
2022/09/20 00:11:14;;;;;;;18.08;9.30;;;9.90;99.90;;;;;;5074570;28;20108;-67
2022/09/20 00:13:41;;;;;;;16.73;7.90;;;9.90;99.90;;;;;;5089715;28;20078;-67
2022/09/20 00:16:11;;;;;;;16.13;8.55;;;9.80;99.90;;;;;;5071159;28;20039;-67
2022/09/20 00:18:37;;;;;;;15.35;8.88;;;9.80;99.90;;;;;;5068281;28;20604;-66
2022/09/20 00:21:03;;;;;;;16.77;8.63;;;9.70;99.90;;;;;;5073424;28;20027;-67
2022/09/20 00:23:30;;;;;;;16.58;9.27;;;9.70;99.90;;;;;;5072047;28;20517;-67
2022/09/20 00:26:01;;;;;;;15.27;9.30;;;9.70;99.90;;;;;;5073898;28;20056;-67
2022/09/20 00:28:28;;;;;;;18.60;8.38;;;9.70;99.90;;;;;;5073613;28;20028;-67
2022/09/20 00:30:55;;;;;;;16.25;8.13;;;9.70;99.90;;;;;;5073628;28;20034;-67
2022/09/20 00:33:22;;;;;;;14.55;7.60;;;9.80;99.90;;;;;;5073837;28;20036;-67
2022/09/20 00:35:49;;;;;;;11.95;6.78;;;9.70;99.90;;;;;;5073821;28;20043;-67
2022/09/20 00:38:15;;;;;;;15.95;8.35;;;9.70;99.90;;;;;;5073692;28;20032;-66
2022/09/20 00:40:42;;;;;;;36.35;21.50;;;9.80;99.90;;;;;;5073951;28;20013;-68
2022/09/20 00:43:16;;;;;;;50.15;35.22;;;9.70;99.90;;;;;;5072163;28;20528;-67
2022/09/20 00:45:47;;;;;;;31.02;18.70;;;9.70;99.90;;;;;;5071690;28;20054;-68
2022/09/20 00:48:19;;;;;;;27.33;15.95;;;9.70;99.90;;;;;;5073432;28;20039;-67
2022/09/20 00:50:52;;;;;;;33.40;17.67;;;9.70;99.90;;;;;;5073776;28;20033;-67
2022/09/20 00:53:25;;;;;;;28.85;18.10;;;9.70;99.90;;;;;;5060754;28;20029;-67
2022/09/20 00:56:01;;;;;;;26.17;14.90;;;9.70;99.90;;;;;;5073579;28;20028;-67
2022/09/20 00:58:29;;;;;;;23.83;13.55;;;9.70;99.90;;;;;;5061528;28;20028;-68
2022/09/20 01:00:56;;;;;;;26.88;13.02;;;9.70;99.90;;;;;;5073079;28;20024;-67
2022/09/20 01:03:26;;;;;;;22.05;12.45;;;9.70;99.90;;;;;;5073503;28;20090;-66
2022/09/20 01:05:53;;;;;;;20.42;13.15;;;9.70;99.90;;;;;;5071799;28;20502;-67
2022/09/20 01:08:20;;;;;;;24.40;12.82;;;9.70;99.90;;;;;;5077692;28;20028;-68
2022/09/20 01:10:46;;;;;;;21.05;11.48;;;9.50;99.90;;;;;;5080711;28;20028;-66
2022/09/20 01:13:12;;;;;;;19.80;11.55;;;9.50;99.90;;;;;;5086600;28;20421;-67
2022/09/20 01:15:39;;;;;;;17.17;11.20;;;9.60;99.90;;;;;;5072708;28;20467;-67
2022/09/20 01:18:08;;;;;;;17.77;11.07;;;9.70;99.90;;;;;;5072930;28;20024;-68
2022/09/20 01:20:37;;;;;;;15.25;9.10;;;9.70;99.90;;;;;;5072389;28;20028;-67
2022/09/20 01:23:19;;;;;;;17.30;10.50;;;9.80;99.90;;;;;;5072874;28;20446;-67
2022/09/20 01:26:13;;;;;;;16.73;10.82;;;9.90;99.90;;;;;;5074158;28;20036;-68
2022/09/20 01:28:43;;;;;;;17.25;9.90;;;9.90;99.90;;;;;;5068883;28;20028;-68
2022/09/20 01:31:24;;;;;;;16.10;9.85;;;9.90;99.90;;;;;;5070942;28;20020;-65
2022/09/20 01:33:57;;;;;;;16.30;9.50;;;9.90;99.90;;;;;;5069399;28;20498;-67
2022/09/20 01:36:30;;;;;;;19.23;11.00;;;9.90;99.90;;;;;;5071225;28;20017;-68
2022/09/20 01:39:12;;;;;;;21.85;11.10;;;9.80;99.90;;;;;;5074099;28;20115;-67
2022/09/20 01:41:48;;;;;;;21.88;11.75;;;9.70;99.90;;;;;;5068382;28;20024;-67
2022/09/20 01:44:32;;;;;;;24.13;12.23;;;9.70;99.90;;;;;;5072387;28;20032;-66
2022/09/20 01:47:26;;;;;;;25.75;12.13;;;9.70;99.90;;;;;;5075520;28;20530;-67
2022/09/20 01:49:56;;;;;;;21.80;12.70;;;9.80;99.90;;;;;;5075470;28;20024;-68
2022/09/20 01:52:45;;;;;;;21.00;13.02;;;9.80;99.90;;;;;;5072391;28;20025;-68
2022/09/20 01:55:48;;;;;;;22.70;14.02;;;9.80;99.90;;;;;;5075624;28;20494;-67
2022/09/20 01:58:22;;;;;;;23.20;14.57;;;9.90;99.90;;;;;;5076598;28;20033;-67
2022/09/20 02:01:05;;;;;;;20.50;11.50;;;9.90;99.90;;;;;;5072444;28;20115;-68
2022/09/20 02:03:40;;;;;;;22.50;13.75;;;10.00;99.90;;;;;;5070039;28;20023;-67
2022/09/20 02:06:22;;;;;;;46.00;27.42;;;9.90;99.90;;;;;;5070296;28;20052;-67
2022/09/20 02:09:06;;;;;;;42.28;25.13;;;9.80;99.90;;;;;;5070311;28;20038;-67
2022/09/20 02:11:58;;;;;;;29.25;19.83;;;9.80;99.90;;;;;;5070952;28;20047;-67
2022/09/20 02:14:54;;;;;;;31.55;19.92;;;9.80;99.90;;;;;;5008903;28;20041;-68
2022/09/20 02:17:26;;;;;;;32.33;20.38;;;9.80;99.90;;;;;;4973407;28;20044;-68
2022/09/20 02:20:06;;;;;;;29.17;16.95;;;9.80;99.90;;;;;;4969436;28;20549;-66
2022/09/20 02:22:34;;;;;;;28.40;16.67;;;9.70;99.90;;;;;;4970017;28;20043;-68
2022/09/20 02:25:24;;;;;;;30.52;18.10;;;9.70;99.90;;;;;;4969593;28;20518;-68
2022/09/20 02:28:11;;;;;;;24.63;15.73;;;9.70;99.90;;;;;;4969248;28;20074;-68
2022/09/20 02:31:00;;;;;;;24.88;11.98;;;9.70;99.90;;;;;;4969112;28;20026;-67
2022/09/20 02:33:46;;;;;;;20.08;12.05;;;9.60;99.90;;;;;;4931079;29;20040;-66
2022/09/20 02:36:34;;;;;;;19.10;10.32;;;9.60;99.90;;;;;;4931125;29;20040;-67
2022/09/20 02:39:16;;;;;;;17.80;9.93;;;9.60;99.90;;;;;;4930710;29;20051;-67
2022/09/20 02:42:05;;;;;;;19.67;10.55;;;9.60;99.90;;;;;;4931018;29;20483;-66
2022/09/20 02:44:42;;;;;;;20.83;10.98;;;9.60;99.90;;;;;;4930076;29;20479;-66
2022/09/20 02:47:21;;;;;;;19.70;10.38;;;9.60;99.90;;;;;;4930752;29;20052;-68
2022/09/20 02:49:56;;;;;;;21.00;10.60;;;9.60;99.90;;;;;;4930646;29;20039;-68
2022/09/20 02:52:46;;;;;;;17.55;10.95;;;9.60;99.90;;;;;;4981879;28;20054;-67
2022/09/20 02:55:38;;;;;;;20.40;10.93;;;9.60;99.90;;;;;;5004537;28;20132;-68
2022/09/20 02:58:23;;;;;;;16.23;10.07;;;9.70;99.90;;;;;;5008785;28;20042;-68
2022/09/20 03:01:14;;;;;;;19.48;9.25;;;9.80;99.90;;;;;;5015144;28;20332;-67
2022/09/20 03:04:18;;;;;;;15.10;8.02;;;9.80;99.90;;;;;;5029018;28;20508;-67
2022/09/20 03:06:57;;;;;;;14.20;7.40;;;9.60;99.90;;;;;;4965689;28;20057;-67
2022/09/20 03:09:48;;;;;;;16.95;8.00;;;9.60;99.90;;;;;;4963853;28;20039;-68
2022/09/20 03:12:28;;;;;;;13.43;6.75;;;9.60;99.90;;;;;;4989887;28;20133;-68
2022/09/20 03:15:30;;;;;;;12.55;6.70;;;9.60;99.90;;;;;;4989435;28;20642;-68
2022/09/20 03:18:11;;;;;;;12.82;6.57;;;9.70;99.90;;;;;;4901214;29;20131;-68
2022/09/20 03:21:01;;;;;;;12.18;5.97;;;9.70;99.90;;;;;;4913171;29;20080;-68
2022/09/20 03:23:57;;;;;;;14.32;6.95;;;9.70;99.90;;;;;;4912981;29;20440;-67
2022/09/20 03:26:46;;;;;;;15.98;8.07;;;9.60;99.90;;;;;;4912505;29;20159;-67
2022/09/20 03:29:46;;;;;;;12.27;6.03;;;9.60;99.90;;;;;;4875988;29;20049;-67
2022/09/20 03:32:47;;;;;;;13.18;6.10;;;9.60;99.90;;;;;;4878749;29;20032;-68
2022/09/20 03:35:18;;;;;;;13.32;6.63;;;9.60;99.90;;;;;;4878938;29;20053;-68
2022/09/20 03:37:56;;;;;;;13.93;6.30;;;9.60;99.90;;;;;;4878703;29;20061;-67
2022/09/20 03:40:40;;;;;;;11.85;6.20;;;9.70;99.90;;;;;;4878967;29;20443;-68
2022/09/20 03:43:23;;;;;;;11.07;6.55;;;9.70;99.90;;;;;;4895636;29;20039;-68
2022/09/20 03:46:16;;;;;;;15.65;8.52;;;9.70;99.90;;;;;;4935481;29;20031;-68
2022/09/20 03:48:54;;;;;;;13.65;7.30;;;9.70;99.90;;;;;;4935667;29;20044;-68
2022/09/20 03:51:37;;;;;;;14.82;7.13;;;9.60;99.90;;;;;;4935338;29;20057;-67
2022/09/20 03:54:21;;;;;;;19.17;8.20;;;9.70;99.90;;;;;;4959559;28;20062;-68
2022/09/20 03:56:58;;;;;;;19.13;9.18;;;9.70;99.90;;;;;;4993427;28;20432;-68
2022/09/20 03:59:58;;;;;;;14.02;7.45;;;9.80;99.90;;;;;;4992825;28;20095;-68
2022/09/20 04:02:42;;;;;;;15.75;8.68;;;9.90;99.90;;;;;;4992467;28;20124;-67
2022/09/20 04:05:13;;;;;;;17.45;8.95;;;9.90;99.90;;;;;;4996004;28;20036;-67
2022/09/20 04:08:01;;;;;;;16.02;7.80;;;9.90;99.90;;;;;;5074407;28;20040;-68
2022/09/20 04:10:36;;;;;;;15.15;7.97;;;10.00;99.90;;;;;;5073364;28;20463;-67
2022/09/20 04:13:33;;;;;;;12.38;6.65;;;10.00;99.90;;;;;;5078118;28;20483;-68
2022/09/20 04:16:22;;;;;;;12.20;7.47;;;10.00;99.90;;;;;;5070725;28;20043;-68
2022/09/20 04:19:00;;;;;;;13.45;7.15;;;10.00;99.90;;;;;;5073233;28;20031;-67
2022/09/20 04:21:38;;;;;;;14.77;7.05;;;10.00;99.90;;;;;;5062747;28;20025;-68
2022/09/20 04:24:16;;;;;;;13.60;6.68;;;10.00;99.90;;;;;;5073067;28;20059;-68
2022/09/20 04:27:07;;;;;;;14.40;6.95;;;10.00;99.90;;;;;;5065049;28;20030;-66
2022/09/20 04:29:44;;;;;;;16.33;7.50;;;10.10;99.90;;;;;;5072886;28;20091;-68
2022/09/20 04:32:23;;;;;;;13.40;6.72;;;10.10;99.90;;;;;;5073202;28;20106;-67
2022/09/20 04:38:09;;;;;;;39.15;21.63;;;10.10;99.90;;;;;;5073198;28;20068;-66
2022/09/20 04:40:35;;;;;;;26.70;15.10;;;9.90;99.90;;;;;;5072980;28;20498;-68
2022/09/20 04:43:27;;;;;;;12.48;6.15;;;10.00;99.90;;;;;;5072750;28;20040;-69
2022/09/20 04:46:17;;;;;;;16.83;4.72;;;9.90;99.90;;;;;;5068344;28;20032;-69
2022/09/20 04:48:45;;;;;;;7.75;4.53;;;9.80;99.90;;;;;;4991281;28;20046;-68
2022/09/20 04:51:38;;;;;;;12.10;4.35;;;9.80;99.90;;;;;;4991227;28;20138;-69
2022/09/20 04:54:10;;;;;;;;;;;9.80;99.90;;;;;;5011032;28;20045;-68
2022/09/20 04:56:35;;;;;;;14.98;4.05;;;9.80;99.90;;;;;;5011047;28;19909;-68
2022/09/20 04:59:04;;;;;;;7.15;4.20;;;9.80;99.90;;;;;;5010683;28;20522;-69
2022/09/20 05:01:46;;;;;;;8.30;4.05;;;9.90;99.90;;;;;;5009531;28;20030;-68
2022/09/20 05:04:53;;;;;;;10.90;4.17;;;9.90;99.90;;;;;;5010737;28;20370;-68
2022/09/20 05:07:21;;;;;;;8.25;3.85;;;9.90;99.90;;;;;;4994019;28;20054;-69
2022/09/20 05:10:08;;;;;;;7.65;4.75;;;9.90;99.90;;;;;;5010160;28;20121;-68
2022/09/20 05:12:40;;;;;;;14.70;5.63;;;9.90;99.90;;;;;;5010599;28;20045;-67
2022/09/20 05:15:40;;;;;;;17.25;7.55;;;10.00;99.90;;;;;;5010452;28;20091;-68
2022/09/20 05:18:17;;;;;;;13.75;7.45;;;10.10;99.90;;;;;;5010599;28;20034;-69
2022/09/20 05:21:06;;;;;;;9.43;4.90;;;10.10;99.90;;;;;;5010394;28;20427;-68
2022/09/20 05:23:38;;;;;;;10.88;4.30;;;10.10;99.90;;;;;;5010543;28;20141;-69
2022/09/20 05:26:10;;;;;;;6.50;3.20;;;10.20;99.90;;;;;;5047927;28;20098;-69
2022/09/20 05:28:52;;;;;;;7.93;3.73;;;10.20;99.90;;;;;;5071957;28;20458;-68
2022/09/20 05:31:29;;;;;;;9.52;4.50;;;10.30;99.90;;;;;;5072255;28;20071;-69
2022/09/20 05:34:07;;;;;;;10.75;5.18;;;10.30;99.90;;;;;;5052052;28;20025;-69
2022/09/20 05:36:57;;;;;;;12.23;5.05;;;10.20;99.90;;;;;;5051911;28;20095;-68
2022/09/20 05:39:52;;;;;;;9.63;4.47;;;10.20;99.90;;;;;;5052294;28;20028;-69
2022/09/20 05:42:27;;;;;;;10.05;5.57;;;10.20;99.90;;;;;;5052037;28;20031;-69
2022/09/20 05:45:16;;;;;;;9.80;4.93;;;10.10;99.90;;;;;;5051765;28;20403;-68
2022/09/20 05:47:56;;;;;;;11.45;4.22;;;10.20;99.90;;;;;;5051325;28;20045;-68
2022/09/20 05:50:44;;;;;;;7.68;3.90;;;10.40;99.90;;;;;;5051912;28;20029;-69
2022/09/20 05:53:43;;;;;;;9.45;3.35;;;10.60;99.90;;;;;;5051425;28;20033;-68
2022/09/20 05:56:24;;;;;;;4.68;3.13;;;10.80;99.90;;;;;;5059789;28;20052;-68
2022/09/20 05:59:15;;;;;;;9.40;3.28;;;11.00;99.90;;;;;;5049835;28;20033;-68
2022/09/20 06:01:49;;;;;;;11.38;3.17;;;11.30;99.90;;;;;;5051201;28;20036;-69
2022/09/20 06:04:22;;;;;;;10.75;3.30;;;11.60;99.90;;;;;;5051285;28;20025;-68
2022/09/20 06:07:06;;;;;;;4.20;2.42;;;11.50;99.90;;;;;;5050641;28;20033;-68
2022/09/20 06:09:46;;;;;;;9.02;3.17;;;11.60;99.90;;;;;;5050625;28;20550;-69
2022/09/20 06:12:18;;;;;;;5.65;2.65;;;11.90;99.90;;;;;;5039737;28;20025;-68
2022/09/20 06:15:15;;;;;;;5.30;2.60;;;12.00;99.90;;;;;;5051458;28;20036;-69
2022/09/20 06:17:54;;;;;;;5.55;3.47;;;12.00;99.90;;;;;;5051242;28;20069;-68
2022/09/20 06:20:53;;;;;;;9.23;4.03;;;12.10;99.90;;;;;;5050087;28;20056;-67
2022/09/20 06:23:20;;;;;;;8.40;4.32;;;12.10;99.90;;;;;;5050286;28;20510;-69
2022/09/20 06:25:54;;;;;;;5.75;3.10;;;12.20;99.90;;;;;;5050202;28;20403;-68
2022/09/20 06:28:37;;;;;;;6.88;4.25;;;12.20;99.90;;;;;;5051147;28;20099;-69
2022/09/20 06:31:06;;;;;;;5.30;2.90;;;12.50;99.90;;;;;;5051544;28;20356;-69
2022/09/20 06:33:32;;;;;;;5.63;3.20;;;12.50;99.90;;;;;;5051146;28;20107;-69
2022/09/20 06:41:25;;;;;;;7.55;3.50;;;12.60;99.90;;;;;;5051614;28;20104;-69
2022/09/20 06:41:57;;;;;;;7.35;2.85;;;12.80;99.90;;;;;;5051283;28;20324;-69
2022/09/20 06:44:25;;;;;;;6.93;3.08;;;12.90;99.90;;;;;;5051238;28;20086;-69
2022/09/20 06:46:54;;;;;;;6.25;2.67;;;13.10;99.90;;;;;;5051158;28;20550;-69
2022/09/20 06:49:21;;;;;;;6.07;2.85;;;13.10;99.90;;;;;;5050894;28;20017;-69
2022/09/20 06:51:49;;;;;;;5.18;2.28;;;13.10;99.90;;;;;;5051231;28;20029;-69
2022/09/20 06:54:18;;;;;;;3.72;2.35;;;13.40;99.90;;;;;;5050712;28;20043;-69
2022/09/20 06:56:45;;;;;;;3.50;2.47;;;13.40;99.90;;;;;;5050547;28;20108;-66
2022/09/20 06:59:13;;;;;;;5.65;2.47;;;13.40;99.90;;;;;;5050688;28;20108;-69
2022/09/20 07:01:39;;;;;;;4.72;2.47;;;13.50;99.90;;;;;;5050502;28;20045;-69
2022/09/20 07:04:05;;;;;;;5.30;2.22;;;13.70;99.90;;;;;;5051630;28;20479;-68
2022/09/20 07:06:34;;;;;;;3.40;2.58;;;14.00;99.90;;;;;;5054006;28;20292;-68
2022/09/20 07:09:00;;;;;;;4.38;2.67;;;14.00;99.90;;;;;;5054049;28;20033;-69
2022/09/20 07:11:26;;;;;;;7.93;2.42;;;14.00;99.90;;;;;;5053944;28;20033;-68
2022/09/20 07:13:54;;;;;;;4.35;2.25;;;14.30;99.90;;;;;;5054103;28;20472;-69
2022/09/20 07:16:21;;;;;;;6.32;2.38;;;14.40;99.90;;;;;;5054123;28;20456;-69
2022/09/20 07:18:47;;;;;;;4.47;2.20;;;14.30;99.90;;;;;;5054175;28;20016;-68
2022/09/20 07:21:15;;;;;;;5.15;2.70;;;14.20;99.90;;;;;;5054202;28;20025;-69
2022/09/20 07:23:41;;;;;;;4.53;2.65;;;14.20;99.90;;;;;;5035367;28;20506;-67
2022/09/20 07:26:18;;;;;;;5.53;2.55;;;14.20;99.90;;;;;;5054217;28;20017;-68
2022/09/20 07:28:44;;;;;;;4.38;2.50;;;14.40;99.90;;;;;;5054067;28;20025;-69
2022/09/20 07:31:09;;;;;;;4.65;2.30;;;14.60;99.90;;;;;;5055012;28;20075;-69
2022/09/20 07:33:35;;;;;;;5.40;2.70;;;14.50;99.90;;;;;;5054086;28;20041;-69
2022/09/20 07:36:01;;;;;;;3.38;1.83;;;14.60;99.90;;;;;;5055013;28;20049;-69
2022/09/20 07:38:27;;;;;;;6.22;2.60;;;14.60;99.90;;;;;;5054505;28;20033;-69
2022/09/20 07:40:59;;;;;;;3.72;2.28;;;14.70;99.90;;;;;;5054732;28;20075;-69
2022/09/20 07:43:25;;;;;;;6.85;2.38;;;14.80;99.90;;;;;;5054570;28;20033;-69
2022/09/20 07:45:57;;;;;;;3.33;1.73;;;14.80;99.90;;;;;;5054519;28;20482;-69
2022/09/20 07:48:28;;;;;;;3.45;1.98;;;14.90;99.90;;;;;;5054881;28;20072;-68
2022/09/20 07:50:57;;;;;;;5.28;2.28;;;14.80;99.90;;;;;;5054645;28;20028;-68
2022/09/20 07:53:23;;;;;;;4.30;2.17;;;15.10;99.90;;;;;;5054570;28;20703;-68
2022/09/20 07:56:05;;;;;;;4.30;2.42;;;15.20;99.90;;;;;;5053999;28;20036;-68
2022/09/20 07:58:33;;;;;;;5.33;2.70;;;15.30;99.90;;;;;;5053891;28;20029;-69
2022/09/20 08:01:01;;;;;;;5.55;2.42;;;15.50;99.90;;;;;;5054182;28;20458;-69
2022/09/20 08:03:29;;;;;;;3.88;2.15;;;15.50;99.90;;;;;;5053314;28;20021;-69
2022/09/20 08:06:08;;;;;;;4.97;2.35;;;15.50;99.90;;;;;;5053425;28;20479;-69
2022/09/20 08:08:35;;;;;;;3.65;2.50;;;15.40;99.90;;;;;;5052316;28;20048;-69
2022/09/20 08:11:13;;;;;;;4.00;2.55;;;15.60;99.90;;;;;;5052564;28;20017;-69
2022/09/20 08:13:41;;;;;;;6.93;2.78;;;15.70;99.90;;;;;;5051935;28;20028;-69
2022/09/20 08:16:09;;;;;;;4.90;2.58;;;15.70;99.90;;;;;;5052510;28;20021;-68
2022/09/20 08:18:36;;;;;;;5.13;2.78;;;15.90;99.90;;;;;;5052298;28;20039;-68
2022/09/20 08:21:05;;;;;;;4.57;2.15;;;15.90;99.90;;;;;;5051971;28;20223;-68
2022/09/20 08:23:34;;;;;;;3.80;2.65;;;15.90;99.90;;;;;;5052088;28;20025;-69
2022/09/20 08:26:00;;;;;;;3.63;2.30;;;16.00;99.90;;;;;;5052526;28;20075;-69
2022/09/20 08:28:26;;;;;;;4.75;2.28;;;16.10;99.90;;;;;;5052151;28;20534;-68
2022/09/20 08:30:52;;;;;;;7.05;2.83;;;15.90;99.90;;;;;;5052657;28;20025;-69
2022/09/20 08:33:17;;;;;;;5.60;2.33;;;16.10;99.90;;;;;;5052570;28;20067;-69
2022/09/20 08:35:47;;;;;;;5.05;2.47;;;16.30;99.90;;;;;;5044781;28;20526;-69
2022/09/20 08:38:12;;;;;;;4.32;2.38;;;16.40;99.90;;;;;;5052504;28;20537;-69
2022/09/20 08:40:38;;;;;;;7.38;2.10;;;16.50;99.90;;;;;;5052292;28;20025;-69
2022/09/20 08:43:06;;;;;;;4.70;2.60;;;16.30;99.90;;;;;;5051989;28;20120;-69
2022/09/20 08:45:32;;;;;;;5.57;2.67;;;16.50;99.90;;;;;;5051457;28;20079;-67
2022/09/20 08:48:01;;;;;;;4.75;2.40;;;16.60;99.90;;;;;;5011055;28;20404;-69
2022/09/20 08:50:27;;;;;;;2.65;1.65;;;16.50;99.90;;;;;;5046610;28;20075;-68
2022/09/20 08:52:56;;;;;;;4.18;1.77;;;16.60;99.90;;;;;;5052830;28;20060;-69
2022/09/20 08:55:30;;;;;;;4.10;2.03;;;16.60;99.90;;;;;;5052315;28;20021;-69
2022/09/20 08:57:57;;;;;;;5.53;1.90;;;16.60;99.90;;;;;;5038939;28;20025;-69
2022/09/20 09:00:28;;;;;;;5.22;2.50;;;16.60;99.90;;;;;;5043489;28;20029;-68
2022/09/20 09:02:56;;;;;;;5.45;2.00;;;16.70;99.90;;;;;;5048447;28;20033;-70
2022/09/20 09:05:35;;;;;;;3.03;1.88;;;16.80;99.90;;;;;;5006419;28;1129252;-69
2022/09/20 09:08:15;;;;;;;4.10;2.30;;;16.90;99.90;;;;;;5054242;28;20075;-70
2022/09/20 09:10:51;;;;;;;4.40;2.47;;;16.90;99.90;;;;;;5050680;28;20029;-67
2022/09/20 09:13:27;;;;;;;3.95;2.28;;;17.00;99.90;;;;;;5063937;28;20256;-68
2022/09/20 09:15:57;;;;;;;5.38;2.50;;;17.10;99.90;;;;;;5064049;28;20021;-68
2022/09/20 09:18:36;;;;;;;3.78;2.53;;;17.20;99.90;;;;;;5057677;28;20029;-68
2022/09/20 09:21:04;;;;;;;4.68;2.40;;;17.10;99.90;;;;;;5048648;28;20108;-70
2022/09/20 09:23:39;;;;;;;3.08;2.00;;;17.20;99.90;;;;;;5051223;28;20032;-68
2022/09/20 09:26:19;;;;;;;2.92;1.63;;;17.30;99.90;;;;;;5051366;28;20037;-69
2022/09/20 09:28:47;;;;;;;2.53;1.80;;;17.30;99.90;;;;;;5047231;28;20021;-69
2022/09/20 09:31:21;;;;;;;4.00;2.05;;;17.30;99.90;;;;;;5051325;28;20078;-68
2022/09/20 09:33:46;;;;;;;4.13;2.08;;;17.60;99.90;;;;;;5051031;28;20033;-68
2022/09/20 09:36:22;;;;;;;3.85;2.15;;;17.50;99.90;;;;;;5053457;28;20356;-70
2022/09/20 09:38:48;;;;;;;5.53;1.95;;;17.60;99.90;;;;;;5050900;28;20501;-70
2022/09/20 09:41:34;;;;;;;3.03;1.73;;;17.50;99.90;;;;;;5052478;28;20025;-68
2022/09/20 09:44:01;;;;;;;3.50;1.65;;;17.40;99.90;;;;;;5052943;28;20048;-69
2022/09/20 09:46:34;;;;;;;4.55;1.95;;;17.20;99.90;;;;;;5065711;28;20455;-69
2022/09/20 09:49:03;;;;;;;2.83;1.77;;;17.30;99.90;;;;;;5040875;28;20443;-70
2022/09/20 09:51:30;;;;;;;4.10;2.20;;;17.30;99.90;;;;;;5037219;28;20026;-68
2022/09/20 09:53:56;;;;;;;3.92;1.92;;;17.40;99.90;;;;;;5061599;28;20060;-69
2022/09/20 09:56:58;;;;;;;2.95;1.27;;;17.60;99.90;;;;;;5071925;28;20474;-69
2022/09/20 10:00:09;;;;;;;5.07;1.85;;;17.70;99.90;;;;;;5047875;28;20032;-67
2022/09/20 10:03:02;;;;;;;2.42;1.30;;;17.90;99.90;;;;;;4990300;28;20074;-69
2022/09/20 10:05:46;;;;;;;3.60;1.50;;;17.80;99.90;;;;;;4990521;28;20050;-70
2022/09/20 10:08:24;;;;;;;2.55;1.48;;;17.90;99.90;;;;;;4976269;28;20242;-70
2022/09/20 10:11:10;;;;;;;1.48;1.25;;;17.90;99.90;;;;;;5001784;28;20056;-69
2022/09/20 10:14:02;;;;;;;2.42;1.48;;;18.20;99.90;;;;;;5009167;28;20070;-69
2022/09/20 10:17:01;;;;;;;4.20;1.20;;;18.10;99.90;;;;;;5009591;28;20076;-67
2022/09/20 10:19:42;;;;;;;1.40;1.00;;;18.00;99.90;;;;;;5009590;28;20543;-69
2022/09/20 10:22:27;;;;;;;1.40;1.23;;;18.00;99.90;;;;;;5009140;28;20057;-69
2022/09/20 10:25:17;;;;;;;1.95;1.38;;;17.90;99.90;;;;;;5008134;28;20049;-68
2022/09/20 10:27:59;;;;;;;2.58;1.50;;;17.90;99.90;;;;;;5009200;28;20049;-69
2022/09/20 10:31:02;;;;;;;2.30;1.10;;;17.90;99.90;;;;;;5009094;28;20026;-69
2022/09/20 10:33:44;;;;;;;1.92;0.90;;;17.90;99.90;;;;;;5008977;28;20052;-70
2022/09/20 10:36:31;;;;;;;2.10;1.08;;;17.70;99.90;;;;;;5009014;28;20022;-69
2022/09/20 10:39:17;;;;;;;1.20;0.88;;;17.60;99.90;;;;;;5022001;28;20107;-69
2022/09/20 10:45:05;;;;;;;2.03;1.20;;;17.60;99.90;;;;;;5070875;28;20036;-69
2022/09/20 10:48:21;;;;;;;1.15;1.02;;;17.50;99.90;;;;;;5059553;28;20040;-69
2022/09/20 10:50:59;;;;;;;2.50;1.02;;;17.40;99.90;;;;;;5047109;28;20478;-68
2022/09/20 10:53:34;;;;;;;1.70;1.08;;;17.30;99.90;;;;;;5070932;28;20044;-69
2022/09/20 10:56:26;;;;;;;1.88;0.93;;;17.40;99.90;;;;;;5071011;28;20104;-69
2022/09/20 10:59:21;;;;;;;2.13;1.08;;;17.50;99.90;;;;;;5067012;28;20040;-70
2022/09/20 11:02:07;;;;;;;1.90;0.98;;;17.60;99.90;;;;;;5047878;28;20029;-70
2022/09/20 11:05:00;;;;;;;3.50;1.15;;;17.90;99.90;;;;;;5070497;28;20063;-69
2022/09/20 11:07:42;;;;;;;2.47;1.45;;;18.10;99.90;;;;;;5056478;28;20513;-70
2022/09/20 11:10:23;;;;;;;0.95;0.60;;;18.30;99.90;;;;;;5068716;28;20475;-68
2022/09/20 11:13:14;;;;;;;1.08;0.93;;;18.10;99.90;;;;;;5053380;28;20432;-70
2022/09/20 11:15:54;;;;;;;2.85;1.08;;;17.70;99.90;;;;;;5045947;28;20108;-70
2022/09/20 11:18:37;;;;;;;2.05;0.98;;;17.50;99.90;;;;;;5068816;28;20020;-69
2022/09/20 11:21:27;;;;;;;1.48;0.90;;;17.30;99.90;;;;;;5070167;28;20104;-69
2022/09/20 11:24:01;;;;;;;3.25;0.85;;;17.60;99.90;;;;;;5069572;28;20040;-69
2022/09/20 11:26:54;;;;;;;0.98;0.88;;;17.80;99.90;;;;;;5069853;28;20493;-70
2022/09/20 11:29:36;;;;;;;3.78;1.20;;;17.90;99.90;;;;;;5069532;28;20017;-69
2022/09/20 11:32:21;;;;;;;2.40;0.95;;;18.00;99.90;;;;;;5055803;28;20040;-70
2022/09/20 11:35:05;;;;;;;1.38;1.05;;;18.10;99.90;;;;;;5067185;28;20107;-69
2022/09/20 11:37:47;;;;;;;1.15;0.80;;;18.20;99.90;;;;;;5067014;28;20037;-69
2022/09/20 11:40:37;;;;;;;1.80;1.17;;;18.30;99.90;;;;;;5069737;28;20031;-70
2022/09/20 11:43:06;;;;;;;2.88;1.02;;;18.60;99.90;;;;;;5068579;28;20052;-70
2022/09/20 11:45:33;;;;;;;1.23;0.80;;;18.70;99.90;;;;;;5069139;28;20047;-70
2022/09/20 11:48:08;;;;;;;4.30;1.13;;;18.50;99.90;;;;;;5068939;28;20043;-69
2022/09/20 11:51:20;;;;;;;2.75;1.38;;;18.00;99.90;;;;;;5071220;28;20037;-65
2022/09/20 11:54:24;;;;;;;2.10;1.30;;;18.00;99.90;;;;;;5073549;28;20032;-67
2022/09/20 11:56:58;;;;;;;4.07;1.67;;;17.90;99.90;;;;;;5055294;28;20083;-66
2022/09/20 11:59:35;;;;;;;3.13;1.48;;;17.80;99.90;;;;;;5069105;28;20029;-65
2022/09/20 12:02:11;;;;;;;1.73;0.98;;;17.90;99.90;;;;;;5065278;28;20131;-65
2022/09/20 12:04:43;;;;;;;2.92;1.33;;;18.10;99.90;;;;;;5071542;28;20036;-65
2022/09/20 12:07:38;;;;;;;5.30;1.63;;;18.10;99.90;;;;;;5059172;28;20545;-66
2022/09/20 12:10:24;;;;;;;3.60;1.10;;;18.10;99.90;;;;;;5072178;28;20040;-66
2022/09/20 12:13:02;;;;;;;1.33;0.90;;;17.80;99.90;;;;;;5074019;28;20162;-65
2022/09/20 12:15:40;;;;;;;1.52;0.95;;;17.60;99.90;;;;;;5073211;28;20028;-65
2022/09/20 12:18:28;;;;;;;8.25;2.30;;;17.50;99.90;;;;;;5073290;28;20029;-66
2022/09/20 12:21:07;;;;;;;2.50;0.98;;;17.70;99.90;;;;;;5073057;28;20032;-64
2022/09/20 12:23:39;;;;;;;1.80;1.00;;;18.00;99.90;;;;;;5072983;28;20047;-65
2022/09/20 12:26:12;;;;;;;2.83;0.70;;;18.30;99.90;;;;;;5073105;28;20029;-65
2022/09/20 12:28:43;;;;;;;2.65;0.68;;;18.50;99.90;;;;;;5073572;28;20112;-69
2022/09/20 12:31:20;;;;;;;0.60;0.60;;;18.60;99.90;;;;;;5073246;28;20036;-69
2022/09/20 12:34:03;;;;;;;0.93;0.80;;;18.80;99.90;;;;;;5073191;28;20056;-69
2022/09/20 12:36:35;;;;;;;1.00;0.75;;;19.00;99.90;;;;;;5074014;28;20025;-69
2022/09/20 12:39:09;;;;;;;2.45;0.80;;;18.90;99.90;;;;;;5073105;28;20033;-69
2022/09/20 12:41:53;;;;;;;1.35;0.90;;;18.90;99.90;;;;;;5074042;28;20402;-70
2022/09/20 12:44:31;;;;;;;1.45;1.00;;;18.50;99.90;;;;;;5073824;28;20074;-69
2022/09/20 12:47:05;;;;;;;2.17;1.00;;;18.50;99.90;;;;;;5072714;28;20024;-69
2022/09/20 12:53:00;;;;;;;3.47;1.88;;;18.30;99.90;;;;;;5073182;28;20501;-70
2022/09/20 12:55:26;;;;;;;3.33;1.42;;;18.20;99.90;;;;;;5073555;28;20036;-68
2022/09/20 12:57:57;;;;;;;2.65;0.90;;;18.20;99.90;;;;;;5068402;28;20021;-69
2022/09/20 13:00:39;;;;;;;0.50;0.50;;;18.30;99.90;;;;;;5063135;28;20039;-68
2022/09/20 13:03:14;;;;;;;0.85;0.85;;;18.40;99.90;;;;;;5054733;28;20029;-69
2022/09/20 13:05:44;;;;;;;0.68;0.60;;;18.60;99.90;;;;;;5063756;28;20056;-68
2022/09/20 13:08:13;;;;;;;3.13;0.60;;;18.70;99.90;;;;;;5055230;28;20427;-69
2022/09/20 13:10:49;;;;;;;1.35;0.73;;;18.70;99.90;;;;;;5063863;28;20493;-71
2022/09/20 13:13:27;;;;;;;1.75;0.85;;;18.60;99.90;;;;;;5034737;28;20029;-65
2022/09/20 13:15:54;;;;;;;3.55;0.82;;;18.70;99.90;;;;;;5044057;28;20013;-70
2022/09/20 13:18:21;;;;;;;0.57;0.57;;;18.70;99.90;;;;;;5031653;28;20052;-69
2022/09/20 13:20:48;;;;;;;2.50;1.30;;;18.60;99.90;;;;;;5032155;28;20055;-71
2022/09/20 13:23:22;;;;;;;1.85;0.75;;;18.70;99.90;;;;;;5019589;28;20025;-70
2022/09/20 13:25:49;;;;;;;3.95;1.63;;;18.50;99.90;;;;;;5072344;28;20467;-69
2022/09/20 13:28:30;;;;;;;1.23;1.13;;;18.60;99.90;;;;;;5052406;28;20386;-68
2022/09/20 13:31:23;;;;;;;3.42;1.50;;;18.40;99.90;;;;;;5031650;28;20061;-69
2022/09/20 13:33:49;;;;;;;2.67;1.35;;;18.40;99.90;;;;;;5056944;28;20024;-69
2022/09/20 13:36:23;;;;;;;3.13;1.23;;;18.30;99.90;;;;;;5073044;28;20497;-69
2022/09/20 13:38:48;;;;;;;2.05;0.77;;;18.40;99.90;;;;;;5056969;28;20059;-69
2022/09/20 13:41:15;;;;;;;1.70;1.20;;;18.30;99.90;;;;;;5051516;28;20049;-68
2022/09/20 13:43:42;;;;;;;2.28;1.30;;;18.30;99.90;;;;;;5038263;28;20028;-69
2022/09/20 13:46:10;;;;;;;3.83;2.53;;;18.30;99.90;;;;;;5053833;28;20021;-69
2022/09/20 13:48:36;;;;;;;2.15;1.10;;;18.30;99.90;;;;;;5071493;28;20372;-70
2022/09/20 13:51:03;;;;;;;1.50;0.82;;;18.10;99.90;;;;;;5037413;28;20455;-70